Saint Catherine, Egypt
Current Conditions -  °F | °C
As of 7:00 PM on Saturday 25 Oct 2014 (Local Time) from HESC Reporting Station
Clear Clear  
Wind Chill: 18°   Ceiling: Unl
Heat Index: 18°   Visibility: 6mi
Dew Point: -1°   Wind: 13mph
Humidity: 28%   Direction: 350°N
Pressure: 30.21"   Gusts: NA
Location:  28.56°N, 33.98°E
Report Text: HESC 251700Z 35011KT CAVOK 18/M01 Q1023 NOSIG
Loading
Personal Weather Stations






























Interactive Weather Map
Tropical Storm Tracking
New forecast layout! Learn more

10-Day Weather Forecast

Advertisements
Track Severe Weather on mobile